sensor_id;sensor_type;location;lat;lon;timestamp;pressure;altitude;pressure_sealevel;temperature;humidity
57827;BME280;43656;57.746;11.780;2023-03-01T00:00:11;102902.84;;;2.18;95.73
57827;BME280;43656;57.746;11.780;2023-03-01T00:02:36;102905.00;;;2.11;95.33
57827;BME280;43656;57.746;11.780;2023-03-01T00:05:03;102907.59;;;2.13;96.03
57827;BME280;43656;57.746;11.780;2023-03-01T00:07:29;102894.69;;;2.07;96.16
57827;BME280;43656;57.746;11.780;2023-03-01T00:09:54;102903.03;;;2.15;95.95
57827;BME280;43656;57.746;11.780;2023-03-01T00:12:20;102908.16;;;2.18;95.66
57827;BME280;43656;57.746;11.780;2023-03-01T00:14:47;102910.50;;;2.08;95.69
57827;BME280;43656;57.746;11.780;2023-03-01T00:17:12;102907.66;;;2.11;95.85
57827;BME280;43656;57.746;11.780;2023-03-01T00:19:39;102910.63;;;2.07;95.57
57827;BME280;43656;57.746;11.780;2023-03-01T00:22:05;102918.94;;;2.01;95.69
57827;BME280;43656;57.746;11.780;2023-03-01T00:24:30;102913.28;;;2.07;96.35
57827;BME280;43656;57.746;11.780;2023-03-01T00:26:56;102904.94;;;2.13;96.44
57827;BME280;43656;57.746;11.780;2023-03-01T00:29:24;102910.06;;;2.16;95.80
57827;BME280;43656;57.746;11.780;2023-03-01T00:31:49;102910.06;;;2.16;96.25
57827;BME280;43656;57.746;11.780;2023-03-01T00:34:15;102913.75;;;2.14;96.16
57827;BME280;43656;57.746;11.780;2023-03-01T00:36:40;102918.28;;;2.11;96.00
57827;BME280;43656;57.746;11.780;2023-03-01T00:39:11;102909.09;;;2.17;96.61
57827;BME280;43656;57.746;11.780;2023-03-01T00:41:37;102917.84;;;2.19;95.65
57827;BME280;43656;57.746;11.780;2023-03-01T00:44:02;102920.31;;;2.22;95.12
57827;BME280;43656;57.746;11.780;2023-03-01T00:46:28;102916.72;;;2.23;95.23
57827;BME280;43656;57.746;11.780;2023-03-01T00:48:55;102921.25;;;2.21;95.12
57827;BME280;43656;57.746;11.780;2023-03-01T00:51:23;102916.13;;;2.18;95.54
57827;BME280;43656;57.746;11.780;2023-03-01T00:53:51;102911.75;;;2.17;95.77
57827;BME280;43656;57.746;11.780;2023-03-01T00:56:16;102917.94;;;2.18;95.69
57827;BME280;43656;57.746;11.780;2023-03-01T00:58:42;102919.66;;;2.19;95.58
57827;BME280;43656;57.746;11.780;2023-03-01T01:01:19;102914.13;;;2.22;96.13
57827;BME280;43656;57.746;11.780;2023-03-01T01:04:14;102909.41;;;2.27;95.47
57827;BME280;43656;57.746;11.780;2023-03-01T01:06:42;102912.06;;;2.27;95.41
57827;BME280;43656;57.746;11.780;2023-03-01T01:09:12;102911.22;;;2.26;95.84
57827;BME280;43656;57.746;11.780;2023-03-01T01:11:46;102912.34;;;2.22;95.83
57827;BME280;43656;57.746;11.780;2023-03-01T01:14:12;102912.63;;;2.18;95.63
57827;BME280;43656;57.746;11.780;2023-03-01T01:16:38;102914.59;;;2.14;95.55
57827;BME280;43656;57.746;11.780;2023-03-01T01:19:04;102912.59;;;2.03;95.47
57827;BME280;43656;57.746;11.780;2023-03-01T01:21:30;102903.97;;;2.00;95.54
57827;BME280;43656;57.746;11.780;2023-03-01T01:23:56;102912.88;;;1.99;95.58
57827;BME280;43656;57.746;11.780;2023-03-01T01:26:25;102905.66;;;2.01;95.37
57827;BME280;43656;57.746;11.780;2023-03-01T01:28:51;102901.97;;;2.03;95.21
57827;BME280;43656;57.746;11.780;2023-03-01T01:31:17;102904.28;;;2.09;95.07
57827;BME280;43656;57.746;11.780;2023-03-01T01:33:42;102894.00;;;2.03;95.01
57827;BME280;43656;57.746;11.780;2023-03-01T01:36:08;102889.91;;;1.98;95.18
57827;BME280;43656;57.746;11.780;2023-03-01T01:38:35;102903.59;;;2.06;95.39
57827;BME280;43656;57.746;11.780;2023-03-01T01:41:01;102889.84;;;1.99;94.94
57827;BME280;43656;57.746;11.780;2023-03-01T01:43:39;102894.50;;;2.10;95.27
57827;BME280;43656;57.746;11.780;2023-03-01T01:46:39;102891.84;;;2.10;95.06
57827;BME280;43656;57.746;11.780;2023-03-01T01:49:26;102900.59;;;2.12;95.17
57827;BME280;43656;57.746;11.780;2023-03-01T01:52:36;102896.00;;;2.14;95.14
57827;BME280;43656;57.746;11.780;2023-03-01T01:55:14;102899.81;;;2.10;95.64
57827;BME280;43656;57.746;11.780;2023-03-01T01:57:44;102896.00;;;2.14;95.84
57827;BME280;43656;57.746;11.780;2023-03-01T02:00:16;102899.44;;;2.16;95.63
57827;BME280;43656;57.746;11.780;2023-03-01T02:02:44;102889.56;;;2.18;95.46
57827;BME280;43656;57.746;11.780;2023-03-01T02:07:51;102879.91;;;2.17;95.96
57827;BME280;43656;57.746;11.780;2023-03-01T02:10:17;102870.78;;;2.21;96.12
57827;BME280;43656;57.746;11.780;2023-03-01T02:12:43;102876.09;;;2.21;96.13
57827;BME280;43656;57.746;11.780;2023-03-01T02:15:09;102874.41;;;2.20;96.44
57827;BME280;43656;57.746;11.780;2023-03-01T02:17:35;102872.78;;;2.18;96.44
57827;BME280;43656;57.746;11.780;2023-03-01T02:20:24;102853.88;;;2.08;96.61
57827;BME280;43656;57.746;11.780;2023-03-01T02:22:52;102858.84;;;2.14;96.25
57827;BME280;43656;57.746;11.780;2023-03-01T02:28:03;102858.47;;;2.20;96.29
57827;BME280;43656;57.746;11.780;2023-03-01T02:30:33;102852.13;;;2.23;96.11
57827;BME280;43656;57.746;11.780;2023-03-01T02:33:00;102871.63;;;2.22;96.12
57827;BME280;43656;57.746;11.780;2023-03-01T02:35:35;102862.53;;;2.11;96.25
57827;BME280;43656;57.746;11.780;2023-03-01T02:38:03;102867.66;;;2.00;95.98
57827;BME280;43656;57.746;11.780;2023-03-01T02:40:33;102866.13;;;1.96;96.26
57827;BME280;43656;57.746;11.780;2023-03-01T02:42:59;102858.34;;;1.93;96.37
57827;BME280;43656;57.746;11.780;2023-03-01T02:45:26;102858.41;;;1.92;96.24
57827;BME280;43656;57.746;11.780;2023-03-01T02:47:56;102858.81;;;1.85;96.36
57827;BME280;43656;57.746;11.780;2023-03-01T02:53:01;102850.72;;;1.73;96.22
57827;BME280;43656;57.746;11.780;2023-03-01T02:55:30;102856.09;;;1.71;96.45
57827;BME280;43656;57.746;11.780;2023-03-01T02:57:56;102863.13;;;1.72;96.15
57827;BME280;43656;57.746;11.780;2023-03-01T03:00:26;102858.59;;;1.74;95.95
57827;BME280;43656;57.746;11.780;2023-03-01T03:02:54;102853.28;;;1.74;96.24
57827;BME280;43656;57.746;11.780;2023-03-01T03:05:29;102850.72;;;1.73;95.66
57827;BME280;43656;57.746;11.780;2023-03-01T03:07:56;102853.75;;;1.81;95.75
57827;BME280;43656;57.746;11.780;2023-03-01T03:10:30;102782.19;;;1.35;95.43
57827;BME280;43656;57.746;11.780;2023-03-01T03:13:02;102855.16;;;1.72;95.54
57827;BME280;43656;57.746;11.780;2023-03-01T03:15:28;102856.03;;;1.73;95.47
57827;BME280;43656;57.746;11.780;2023-03-01T03:17:55;102850.97;;;1.68;95.72
57827;BME280;43656;57.746;11.780;2023-03-01T03:20:24;102850.22;;;1.66;95.98
57827;BME280;43656;57.746;11.780;2023-03-01T03:22:52;102858.44;;;1.61;95.63
57827;BME280;43656;57.746;11.780;2023-03-01T03:25:19;102852.41;;;1.59;95.63
57827;BME280;43656;57.746;11.780;2023-03-01T03:27:45;102854.94;;;1.61;96.16
57827;BME280;43656;57.746;11.780;2023-03-01T03:30:14;102856.38;;;1.67;95.91
57827;BME280;43656;57.746;11.780;2023-03-01T03:32:41;102844.75;;;1.69;95.67
57827;BME280;43656;57.746;11.780;2023-03-01T03:35:21;102839.63;;;1.66;95.74
57827;BME280;43656;57.746;11.780;2023-03-01T03:37:47;102846.69;;;1.65;95.70
57827;BME280;43656;57.746;11.780;2023-03-01T03:40:36;102847.47;;;1.68;95.45
57827;BME280;43656;57.746;11.780;2023-03-01T03:43:14;102835.53;;;1.60;95.72
57827;BME280;43656;57.746;11.780;2023-03-01T03:45:41;102852.28;;;1.61;95.37
57827;BME280;43656;57.746;11.780;2023-03-01T03:48:08;102845.72;;;1.52;95.68
57827;BME280;43656;57.746;11.780;2023-03-01T03:50:35;102844.00;;;1.51;95.94
57827;BME280;43656;57.746;11.780;2023-03-01T03:53:02;102840.69;;;1.48;95.74
57827;BME280;43656;57.746;11.780;2023-03-01T03:55:28;102841.72;;;1.45;95.73
57827;BME280;43656;57.746;11.780;2023-03-01T03:57:57;102848.75;;;1.46;95.50
57827;BME280;43656;57.746;11.780;2023-03-01T04:00:23;102847.13;;;1.44;95.74
57827;BME280;43656;57.746;11.780;2023-03-01T04:02:50;102849.09;;;1.40;95.76
57827;BME280;43656;57.746;11.780;2023-03-01T04:05:17;102839.53;;;1.37;95.79
57827;BME280;43656;57.746;11.780;2023-03-01T04:07:43;102846.69;;;1.35;95.81
57827;BME280;43656;57.746;11.780;2023-03-01T04:10:12;102845.44;;;1.43;95.98
57827;BME280;43656;57.746;11.780;2023-03-01T04:12:38;102848.06;;;1.43;95.87
57827;BME280;43656;57.746;11.780;2023-03-01T04:15:05;102856.59;;;1.48;95.54
57827;BME280;43656;57.746;11.780;2023-03-01T04:17:42;102846.00;;;1.48;95.54
57827;BME280;43656;57.746;11.780;2023-03-01T04:20:10;102846.63;;;1.37;95.82
57827;BME280;43656;57.746;11.780;2023-03-01T04:22:39;102851.75;;;1.40;95.43
57827;BME280;43656;57.746;11.780;2023-03-01T04:25:06;102860.03;;;1.50;95.41
57827;BME280;43656;57.746;11.780;2023-03-01T04:27:35;102850.63;;;1.44;95.57
57827;BME280;43656;57.746;11.780;2023-03-01T04:30:03;102846.69;;;1.35;95.69
57827;BME280;43656;57.746;11.780;2023-03-01T04:32:29;102853.91;;;1.33;95.97
57827;BME280;43656;57.746;11.780;2023-03-01T04:35:00;102853.81;;;1.35;96.08
57827;BME280;43656;57.746;11.780;2023-03-01T04:37:26;102845.94;;;1.33;96.09
57827;BME280;43656;57.746;11.780;2023-03-01T04:39:52;102843.38;;;1.32;96.22
57827;BME280;43656;57.746;11.780;2023-03-01T04:42:18;102841.66;;;1.31;96.29
57827;BME280;43656;57.746;11.780;2023-03-01T04:44:44;102836.25;;;1.32;96.11
57827;BME280;43656;57.746;11.780;2023-03-01T04:47:09;102839.13;;;1.29;96.47
57827;BME280;43656;57.746;11.780;2023-03-01T04:49:35;102826.97;;;1.25;96.15
57827;BME280;43656;57.746;11.780;2023-03-01T04:52:00;102826.03;;;1.26;96.54
57827;BME280;43656;57.746;11.780;2023-03-01T04:54:34;102826.78;;;1.28;96.47
57827;BME280;43656;57.746;11.780;2023-03-01T04:57:00;102824.06;;;1.30;96.52
57827;BME280;43656;57.746;11.780;2023-03-01T04:59:26;102831.91;;;1.31;96.46
57827;BME280;43656;57.746;11.780;2023-03-01T05:01:54;102830.09;;;1.32;96.16
57827;BME280;43656;57.746;11.780;2023-03-01T05:04:23;102827.47;;;1.32;96.48
57827;BME280;43656;57.746;11.780;2023-03-01T05:06:49;102796.03;;;1.10;96.01
57827;BME280;43656;57.746;11.780;2023-03-01T05:09:15;102822.25;;;1.30;96.65
57827;BME280;43656;57.746;11.780;2023-03-01T05:11:40;102815.47;;;1.40;96.42
57827;BME280;43656;57.746;11.780;2023-03-01T05:14:07;102826.28;;;1.52;96.52
57827;BME280;43656;57.746;11.780;2023-03-01T05:16:33;102817.41;;;1.53;96.44
57827;BME280;43656;57.746;11.780;2023-03-01T05:18:59;102822.22;;;1.46;96.98
57827;BME280;43656;57.746;11.780;2023-03-01T05:21:25;102809.13;;;1.43;97.15
57827;BME280;43656;57.746;11.780;2023-03-01T05:23:51;102824.69;;;1.49;96.72
57827;BME280;43656;57.746;11.780;2023-03-01T05:26:18;102818.91;;;1.43;96.89
57827;BME280;43656;57.746;11.780;2023-03-01T05:28:44;102813.59;;;1.43;96.71
57827;BME280;43656;57.746;11.780;2023-03-01T05:31:09;102817.41;;;1.53;96.41
57827;BME280;43656;57.746;11.780;2023-03-01T05:33:39;102817.53;;;1.35;97.10
57827;BME280;43656;57.746;11.780;2023-03-01T05:36:07;102814.13;;;1.33;97.10
57827;BME280;43656;57.746;11.780;2023-03-01T05:38:33;102819.06;;;1.39;96.85
57827;BME280;43656;57.746;11.780;2023-03-01T05:40:59;102808.47;;;1.39;96.80
57827;BME280;43656;57.746;11.780;2023-03-01T05:43:25;102805.88;;;1.38;96.64
57827;BME280;43656;57.746;11.780;2023-03-01T05:45:51;102801.78;;;1.32;96.45
57827;BME280;43656;57.746;11.780;2023-03-01T05:48:16;102809.84;;;1.31;96.34
57827;BME280;43656;57.746;11.780;2023-03-01T05:50:44;102818.66;;;1.31;96.49
57827;BME280;43656;57.746;11.780;2023-03-01T05:53:19;102819.59;;;1.30;96.72
57827;BME280;43656;57.746;11.780;2023-03-01T05:55:46;102817.97;;;1.28;96.44
57827;BME280;43656;57.746;11.780;2023-03-01T05:58:18;102821.75;;;1.24;96.13
57827;BME280;43656;57.746;11.780;2023-03-01T06:00:46;102828.88;;;1.23;96.18
57827;BME280;43656;57.746;11.780;2023-03-01T06:03:14;102828.94;;;1.22;96.47
57827;BME280;43656;57.746;11.780;2023-03-01T06:05:41;102832.25;;;1.25;95.87
57827;BME280;43656;57.746;11.780;2023-03-01T06:08:07;102836.66;;;1.26;95.43
57827;BME280;43656;57.746;11.780;2023-03-01T06:10:32;102841.78;;;1.29;95.79
57827;BME280;43656;57.746;11.780;2023-03-01T06:12:58;102844.31;;;1.31;95.50
57827;BME280;43656;57.746;11.780;2023-03-01T06:15:24;102834.66;;;1.30;95.28
57827;BME280;43656;57.746;11.780;2023-03-01T06:17:50;102841.69;;;1.15;95.54
57827;BME280;43656;57.746;11.780;2023-03-01T06:20:16;102842.66;;;1.14;96.03
57827;BME280;43656;57.746;11.780;2023-03-01T06:22:43;102852.31;;;1.15;96.12
57827;BME280;43656;57.746;11.780;2023-03-01T06:25:09;102854.88;;;1.16;96.00
57827;BME280;43656;57.746;11.780;2023-03-01T06:27:35;102857.44;;;1.18;95.92
57827;BME280;43656;57.746;11.780;2023-03-01T06:30:01;102857.88;;;1.26;95.42
57827;BME280;43656;57.746;11.780;2023-03-01T06:32:27;102860.50;;;1.26;95.98
57827;BME280;43656;57.746;11.780;2023-03-01T06:34:52;102867.53;;;1.27;95.80
57827;BME280;43656;57.746;11.780;2023-03-01T06:37:18;102873.69;;;1.28;95.80
57827;BME280;43656;57.746;11.780;2023-03-01T06:39:43;102874.63;;;1.27;96.06
57827;BME280;43656;57.746;11.780;2023-03-01T06:42:09;102864.25;;;1.22;95.94
57827;BME280;43656;57.746;11.780;2023-03-01T06:44:37;102874.28;;;1.33;96.03
57827;BME280;43656;57.746;11.780;2023-03-01T06:47:03;102872.34;;;1.51;95.44
57827;BME280;43656;57.746;11.780;2023-03-01T06:49:29;102874.81;;;1.54;95.51
57827;BME280;43656;57.746;11.780;2023-03-01T06:51:55;102854.91;;;1.47;95.68
57827;BME280;43656;57.746;11.780;2023-03-01T06:54:21;102885.41;;;1.70;95.79
57827;BME280;43656;57.746;11.780;2023-03-01T06:56:47;102885.44;;;1.84;95.52
57827;BME280;43656;57.746;11.780;2023-03-01T06:59:13;102878.72;;;1.93;95.53
57827;BME280;43656;57.746;11.780;2023-03-01T07:01:39;102877.59;;;1.97;95.36
57827;BME280;43656;57.746;11.780;2023-03-01T07:04:04;102878.44;;;1.97;95.39
57827;BME280;43656;57.746;11.780;2023-03-01T07:06:30;102887.66;;;2.06;95.16
57827;BME280;43656;57.746;11.780;2023-03-01T07:08:55;102889.47;;;2.05;95.14
57827;BME280;43656;57.746;11.780;2023-03-01T07:11:20;102891.56;;;2.15;95.20
57827;BME280;43656;57.746;11.780;2023-03-01T07:13:46;102901.25;;;2.16;95.45
57827;BME280;43656;57.746;11.780;2023-03-01T07:16:11;102900.97;;;2.20;95.75
57827;BME280;43656;57.746;11.780;2023-03-01T07:18:37;102908.09;;;2.34;95.06
57827;BME280;43656;57.746;11.780;2023-03-01T07:21:11;102901.38;;;2.43;94.80
57827;BME280;43656;57.746;11.780;2023-03-01T07:23:37;102899.91;;;2.51;95.07
57827;BME280;43656;57.746;11.780;2023-03-01T07:26:03;102901.94;;;2.62;95.21
57827;BME280;43656;57.746;11.780;2023-03-01T07:28:28;102906.88;;;2.68;94.54
57827;BME280;43656;57.746;11.780;2023-03-01T07:30:54;102912.66;;;2.75;94.82
57827;BME280;43656;57.746;11.780;2023-03-01T07:33:20;102910.34;;;2.83;94.21
57827;BME280;43656;57.746;11.780;2023-03-01T07:35:46;102894.59;;;2.80;94.64
57827;BME280;43656;57.746;11.780;2023-03-01T07:38:12;102905.69;;;2.87;95.21
57827;BME280;43656;57.746;11.780;2023-03-01T07:40:37;102899.53;;;2.86;95.17
57827;BME280;43656;57.746;11.780;2023-03-01T07:43:03;102914.91;;;2.95;96.00
57827;BME280;43656;57.746;11.780;2023-03-01T07:45:29;102924.19;;;3.02;95.78
57827;BME280;43656;57.746;11.780;2023-03-01T07:47:55;102920.19;;;3.10;95.68
57827;BME280;43656;57.746;11.780;2023-03-01T07:50:21;102898.44;;;3.03;95.63
57827;BME280;43656;57.746;11.780;2023-03-01T07:52:48;102925.00;;;3.17;96.25
57827;BME280;43656;57.746;11.780;2023-03-01T07:55:14;102909.03;;;3.17;96.64
57827;BME280;43656;57.746;11.780;2023-03-01T07:57:40;102925.91;;;3.30;97.26
57827;BME280;43656;57.746;11.780;2023-03-01T08:00:07;102927.78;;;3.43;96.65
57827;BME280;43656;57.746;11.780;2023-03-01T08:02:33;102925.44;;;3.65;96.48
57827;BME280;43656;57.746;11.780;2023-03-01T08:04:58;102921.19;;;3.75;96.04
57827;BME280;43656;57.746;11.780;2023-03-01T08:07:24;102924.38;;;3.81;96.71
57827;BME280;43656;57.746;11.780;2023-03-01T08:09:49;102928.91;;;3.93;95.63
57827;BME280;43656;57.746;11.780;2023-03-01T08:12:14;102928.09;;;4.05;95.62
57827;BME280;43656;57.746;11.780;2023-03-01T08:14:42;102930.22;;;4.26;95.56
57827;BME280;43656;57.746;11.780;2023-03-01T08:17:08;102928.31;;;4.15;95.92
57827;BME280;43656;57.746;11.780;2023-03-01T08:19:34;102924.38;;;4.33;95.48
57827;BME280;43656;57.746;11.780;2023-03-01T08:22:01;102931.31;;;4.48;95.74
57827;BME280;43656;57.746;11.780;2023-03-01T08:24:27;102934.28;;;4.31;96.15
57827;BME280;43656;57.746;11.780;2023-03-01T08:26:54;102930.47;;;4.48;96.07
57827;BME280;43656;57.746;11.780;2023-03-01T08:29:20;102924.78;;;4.53;95.76
57827;BME280;43656;57.746;11.780;2023-03-01T08:31:46;102921.06;;;4.68;95.61
57827;BME280;43656;57.746;11.780;2023-03-01T08:34:15;102926.88;;;4.86;95.62
57827;BME280;43656;57.746;11.780;2023-03-01T08:36:43;102921.53;;;4.86;95.27
57827;BME280;43656;57.746;11.780;2023-03-01T08:39:12;102922.19;;;4.89;95.36
57827;BME280;43656;57.746;11.780;2023-03-01T08:41:38;102919.09;;;4.83;95.41
57827;BME280;43656;57.746;11.780;2023-03-01T08:44:04;102915.78;;;4.79;96.02
57827;BME280;43656;57.746;11.780;2023-03-01T08:46:33;102925.38;;;4.94;95.63
57827;BME280;43656;57.746;11.780;2023-03-01T08:48:59;102927.22;;;4.81;95.98
57827;BME280;43656;57.746;11.780;2023-03-01T08:51:25;102926.66;;;4.89;96.96
57827;BME280;43656;57.746;11.780;2023-03-01T08:53:51;102931.84;;;5.03;96.48
57827;BME280;43656;57.746;11.780;2023-03-01T08:56:18;102923.22;;;5.00;95.99
57827;BME280;43656;57.746;11.780;2023-03-01T08:58:47;102928.28;;;4.91;95.45
57827;BME280;43656;57.746;11.780;2023-03-01T09:01:15;102912.06;;;4.82;95.52
57827;BME280;43656;57.746;11.780;2023-03-01T09:03:42;102924.22;;;5.23;95.14
57827;BME280;43656;57.746;11.780;2023-03-01T09:06:08;102908.22;;;5.23;94.62
57827;BME280;43656;57.746;11.780;2023-03-01T09:08:39;102903.63;;;5.25;94.32
57827;BME280;43656;57.746;11.780;2023-03-01T09:11:07;102911.63;;;5.25;93.09
57827;BME280;43656;57.746;11.780;2023-03-01T09:13:33;102914.69;;;5.55;92.93
57827;BME280;43656;57.746;11.780;2023-03-01T09:16:01;102908.09;;;5.48;92.99
57827;BME280;43656;57.746;11.780;2023-03-01T09:18:27;102887.50;;;5.50;91.75
57827;BME280;43656;57.746;11.780;2023-03-01T09:20:53;102912.25;;;5.76;91.63
57827;BME280;43656;57.746;11.780;2023-03-01T09:23:20;102915.94;;;5.86;90.72
57827;BME280;43656;57.746;11.780;2023-03-01T09:25:46;102917.00;;;5.84;90.19
57827;BME280;43656;57.746;11.780;2023-03-01T09:28:11;102917.03;;;6.19;89.80
57827;BME280;43656;57.746;11.780;2023-03-01T09:30:37;102921.75;;;6.27;90.54
57827;BME280;43656;57.746;11.780;2023-03-01T09:33:02;102919.69;;;6.30;89.20
57827;BME280;43656;57.746;11.780;2023-03-01T09:35:28;102917.63;;;6.34;88.71
57827;BME280;43656;57.746;11.780;2023-03-01T09:37:53;102913.41;;;6.43;88.11
57827;BME280;43656;57.746;11.780;2023-03-01T09:40:21;102899.19;;;6.53;88.16
57827;BME280;43656;57.746;11.780;2023-03-01T09:42:56;102907.44;;;6.84;88.90
57827;BME280;43656;57.746;11.780;2023-03-01T09:45:26;102898.66;;;6.82;88.89
57827;BME280;43656;57.746;11.780;2023-03-01T09:47:52;102898.69;;;6.59;86.21
57827;BME280;43656;57.746;11.780;2023-03-01T09:50:20;102900.38;;;6.72;86.37
57827;BME280;43656;57.746;11.780;2023-03-01T09:52:50;102911.81;;;6.85;85.82
57827;BME280;43656;57.746;11.780;2023-03-01T09:55:50;102899.91;;;6.89;84.18
57827;BME280;43656;57.746;11.780;2023-03-01T10:01:28;102907.56;;;6.94;82.74
57827;BME280;43656;57.746;11.780;2023-03-01T10:04:28;102906.22;;;6.99;84.39
57827;BME280;43656;57.746;11.780;2023-03-01T10:09:59;102907.31;;;6.97;85.24
57827;BME280;43656;57.746;11.780;2023-03-01T10:12:34;102909.81;;;7.21;82.59
57827;BME280;43656;57.746;11.780;2023-03-01T10:15:09;102907.41;;;7.06;81.77
57827;BME280;43656;57.746;11.780;2023-03-01T10:17:48;102901.22;;;7.38;81.58
57827;BME280;43656;57.746;11.780;2023-03-01T10:22:41;102897.44;;;7.52;80.35
57827;BME280;43656;57.746;11.780;2023-03-01T10:25:08;102900.19;;;7.62;79.90
57827;BME280;43656;57.746;11.780;2023-03-01T10:27:51;102888.22;;;7.66;78.53
57827;BME280;43656;57.746;11.780;2023-03-01T10:30:21;102895.59;;;7.85;79.75
57827;BME280;43656;57.746;11.780;2023-03-01T10:32:50;102900.41;;;7.91;80.12
57827;BME280;43656;57.746;11.780;2023-03-01T10:35:21;102881.38;;;7.94;80.35
57827;BME280;43656;57.746;11.780;2023-03-01T10:40:22;102900.53;;;8.10;78.55
57827;BME280;43656;57.746;11.780;2023-03-01T10:42:49;102898.97;;;8.08;79.12
57827;BME280;43656;57.746;11.780;2023-03-01T10:50:49;102898.06;;;8.39;77.16
57827;BME280;43656;57.746;11.780;2023-03-01T10:53:28;102900.16;;;8.15;72.09
57827;BME280;43656;57.746;11.780;2023-03-01T10:56:06;102891.91;;;8.07;72.53
57827;BME280;43656;57.746;11.780;2023-03-01T10:58:34;102899.34;;;8.24;73.34
57827;BME280;43656;57.746;11.780;2023-03-01T11:01:04;102894.13;;;8.22;71.49
57827;BME280;43656;57.746;11.780;2023-03-01T11:03:36;102890.19;;;8.27;72.20
57827;BME280;43656;57.746;11.780;2023-03-01T11:11:31;102892.34;;;8.33;67.44
57827;BME280;43656;57.746;11.780;2023-03-01T11:16:36;102892.81;;;7.96;72.43
57827;BME280;43656;57.746;11.780;2023-03-01T11:21:37;102890.50;;;7.49;74.72
57827;BME280;43656;57.746;11.780;2023-03-01T11:24:06;102888.81;;;7.48;74.78
57827;BME280;43656;57.746;11.780;2023-03-01T11:26:38;102890.09;;;7.54;74.61
57827;BME280;43656;57.746;11.780;2023-03-01T11:29:13;102895.25;;;7.46;75.03
57827;BME280;43656;57.746;11.780;2023-03-01T11:31:42;102893.19;;;7.49;75.44
57827;BME280;43656;57.746;11.780;2023-03-01T11:34:14;102890.00;;;7.44;74.79
57827;BME280;43656;57.746;11.780;2023-03-01T11:36:56;102890.19;;;7.64;74.57
57827;BME280;43656;57.746;11.780;2023-03-01T11:41:56;102881.16;;;7.65;75.26
57827;BME280;43656;57.746;11.780;2023-03-01T11:44:28;102886.91;;;7.60;75.98
57827;BME280;43656;57.746;11.780;2023-03-01T11:49:45;102884.91;;;7.73;76.53
57827;BME280;43656;57.746;11.780;2023-03-01T12:08:54;102861.38;;;8.19;77.26
57827;BME280;43656;57.746;11.780;2023-03-01T12:11:42;102867.25;;;8.13;78.12
57827;BME280;43656;57.746;11.780;2023-03-01T12:25:41;102864.03;;;8.19;78.66
57827;BME280;43656;57.746;11.780;2023-03-01T12:28:23;102859.78;;;8.16;78.73
57827;BME280;43656;57.746;11.780;2023-03-01T12:34:00;102849.94;;;7.96;79.45
57827;BME280;43656;57.746;11.780;2023-03-01T12:44:47;102848.69;;;7.79;80.08
57827;BME280;43656;57.746;11.780;2023-03-01T12:49:57;102841.25;;;7.62;81.55
57827;BME280;43656;57.746;11.780;2023-03-01T12:52:57;102836.16;;;7.59;82.55
57827;BME280;43656;57.746;11.780;2023-03-01T12:55:38;102830.63;;;7.39;82.98
57827;BME280;43656;57.746;11.780;2023-03-01T12:58:42;102836.00;;;7.39;83.21
57827;BME280;43656;57.746;11.780;2023-03-01T13:09:39;102811.16;;;7.37;84.72
57827;BME280;43656;57.746;11.780;2023-03-01T13:17:53;102801.50;;;7.46;85.04
57827;BME280;43656;57.746;11.780;2023-03-01T13:20:23;102797.50;;;7.40;85.16
57827;BME280;43656;57.746;11.780;2023-03-01T13:23:03;102796.06;;;7.36;84.89
57827;BME280;43656;57.746;11.780;2023-03-01T13:25:30;102798.50;;;7.39;85.17
57827;BME280;43656;57.746;11.780;2023-03-01T13:31:00;102796.25;;;7.23;87.64
57827;BME280;43656;57.746;11.780;2023-03-01T13:35:51;102777.94;;;7.07;89.24
57827;BME280;43656;57.746;11.780;2023-03-01T13:41:09;102771.81;;;7.17;89.05
57827;BME280;43656;57.746;11.780;2023-03-01T13:43:36;102773.97;;;7.02;90.25
57827;BME280;43656;57.746;11.780;2023-03-01T13:46:18;102775.66;;;7.03;90.40
57827;BME280;43656;57.746;11.780;2023-03-01T13:48:49;102778.44;;;7.01;91.25
57827;BME280;43656;57.746;11.780;2023-03-01T13:51:21;102769.19;;;7.05;91.01
57827;BME280;43656;57.746;11.780;2023-03-01T13:53:49;102760.91;;;7.09;91.42
57827;BME280;43656;57.746;11.780;2023-03-01T13:56:17;102757.06;;;6.90;92.58
57827;BME280;43656;57.746;11.780;2023-03-01T13:58:51;102766.53;;;6.94;93.01
57827;BME280;43656;57.746;11.780;2023-03-01T14:03:45;102754.72;;;6.76;94.40
57827;BME280;43656;57.746;11.780;2023-03-01T14:06:25;102764.38;;;6.88;94.04
57827;BME280;43656;57.746;11.780;2023-03-01T14:09:01;102754.78;;;6.86;94.41
57827;BME280;43656;57.746;11.780;2023-03-01T14:14:52;102754.72;;;6.76;95.48
57827;BME280;43656;57.746;11.780;2023-03-01T14:19:48;102753.03;;;6.64;96.41
57827;BME280;43656;57.746;11.780;2023-03-01T14:22:34;102751.78;;;6.68;96.13
57827;BME280;43656;57.746;11.780;2023-03-01T14:25:03;102746.19;;;6.71;95.84
57827;BME280;43656;57.746;11.780;2023-03-01T14:27:35;102745.84;;;6.64;96.67
57827;BME280;43656;57.746;11.780;2023-03-01T14:32:37;102759.84;;;6.45;97.57
57827;BME280;43656;57.746;11.780;2023-03-01T14:35:23;102748.31;;;6.56;96.89
57827;BME280;43656;57.746;11.780;2023-03-01T14:37:49;102750.16;;;6.44;97.34
57827;BME280;43656;57.746;11.780;2023-03-01T14:40:24;102748.56;;;6.53;96.54
57827;BME280;43656;57.746;11.780;2023-03-01T14:42:51;102740.63;;;6.63;95.73
57827;BME280;43656;57.746;11.780;2023-03-01T14:45:17;102748.38;;;6.77;95.08
57827;BME280;43656;57.746;11.780;2023-03-01T14:47:43;102743.75;;;6.79;94.43
57827;BME280;43656;57.746;11.780;2023-03-01T14:50:27;102742.84;;;6.90;93.98
57827;BME280;43656;57.746;11.780;2023-03-01T14:52:59;102745.19;;;6.83;94.06
57827;BME280;43656;57.746;11.780;2023-03-01T14:55:38;102745.69;;;7.09;93.09